Time;durP1;ratioP1;P1;durP2;ratioP2;P2;SDS_P1;SDS_P2;PMS_P1;PMS_P2;Temp;Humidity;BMP_temperature;BMP_pressure;BME280_temperature;BME280_humidity;BME280_pressure;Samples;Min_cycle;Max_cycle;Signal;HPM_P1;HPM_P2
2022/05/29 00:01:05;;;;;;;13.20;2.90;;;;;;;;;;5104252;28;20376;-67
2022/05/29 00:03:32;;;;;;;3.78;2.45;;;;;;;;;;5103977;28;20215;-67
2022/05/29 00:05:58;;;;;;;2.35;2.10;;;;;;;;;;5103931;28;20407;-67
2022/05/29 00:08:26;;;;;;;3.25;1.98;;;;;;;;;;5103947;28;20558;-67
2022/05/29 00:10:54;;;;;;;3.05;2.33;;;;;;;;;;5103827;28;20200;-67
2022/05/29 00:13:20;;;;;;;4.13;2.25;;;;;;;;;;5104039;28;20199;-67
2022/05/29 00:15:47;;;;;;;3.50;2.42;;;;;;;;;;5104060;28;20204;-67
2022/05/29 00:18:14;;;;;;;2.70;2.15;;;;;;;;;;5103699;28;20196;-67
2022/05/29 00:20:40;;;;;;;4.35;2.00;;;;;;;;;;5103823;28;20534;-67
2022/05/29 00:23:07;;;;;;;2.45;2.17;;;;;;;;;;5103498;28;20212;-67
2022/05/29 00:25:33;;;;;;;3.47;2.13;;;;;;;;;;5104053;28;20208;-67
2022/05/29 00:28:01;;;;;;;2.45;2.25;;;;;;;;;;5103518;28;20195;-67
2022/05/29 00:30:27;;;;;;;4.72;2.88;;;;;;;;;;5103775;28;20474;-67
2022/05/29 00:32:53;;;;;;;3.63;2.58;;;;;;;;;;5103577;28;20192;-67
2022/05/29 00:35:20;;;;;;;4.60;2.28;;;;;;;;;;5103545;28;20207;-67
2022/05/29 00:37:47;;;;;;;3.22;2.40;;;;;;;;;;5103171;28;20199;-67
2022/05/29 00:40:22;;;;;;;2.45;2.00;;;;;;;;;;5103640;28;20199;-67
2022/05/29 00:42:48;;;;;;;2.28;2.10;;;;;;;;;;5103247;28;20219;-67
2022/05/29 00:45:19;;;;;;;2.60;2.40;;;;;;;;;;5103311;28;20200;-67
2022/05/29 00:47:46;;;;;;;2.40;2.25;;;;;;;;;;5103006;28;20199;-67
2022/05/29 00:50:12;;;;;;;3.38;2.55;;;;;;;;;;5103116;28;20203;-67
2022/05/29 00:52:39;;;;;;;5.75;2.72;;;;;;;;;;5103455;28;20191;-67
2022/05/29 00:55:06;;;;;;;3.78;2.70;;;;;;;;;;5103233;28;20219;-67
2022/05/29 00:57:34;;;;;;;5.10;2.97;;;;;;;;;;5102633;28;20202;-67
2022/05/29 01:00:02;;;;;;;2.30;2.10;;;;;;;;;;5103109;28;20249;-67
2022/05/29 01:02:29;;;;;;;4.25;2.50;;;;;;;;;;5102869;28;20218;-67
2022/05/29 01:04:57;;;;;;;4.28;2.40;;;;;;;;;;5103289;28;20219;-67
2022/05/29 01:07:24;;;;;;;2.80;2.40;;;;;;;;;;5102929;28;20216;-67
2022/05/29 01:09:51;;;;;;;5.25;2.58;;;;;;;;;;5102867;28;20195;-67
2022/05/29 01:12:24;;;;;;;4.55;2.50;;;;;;;;;;5102862;28;20195;-67
2022/05/29 01:14:54;;;;;;;2.67;2.15;;;;;;;;;;5102817;28;20196;-67
2022/05/29 01:17:25;;;;;;;3.58;2.25;;;;;;;;;;5102474;28;20210;-67
2022/05/29 01:20:06;;;;;;;2.72;2.08;;;;;;;;;;5102936;28;20210;-67
2022/05/29 01:23:06;;;;;;;2.50;2.30;;;;;;;;;;5102787;28;20226;-67
2022/05/29 01:25:46;;;;;;;5.00;2.65;;;;;;;;;;5040225;28;20206;-67
2022/05/29 01:28:14;;;;;;;5.82;2.22;;;;;;;;;;5040103;28;20232;-67
2022/05/29 01:30:44;;;;;;;5.35;2.38;;;;;;;;;;5073917;28;20203;-67
2022/05/29 01:33:16;;;;;;;5.05;2.53;;;;;;;;;;5101962;28;20179;-67
2022/05/29 01:35:45;;;;;;;3.70;2.35;;;;;;;;;;5102777;28;20196;-67
2022/05/29 01:38:15;;;;;;;4.78;2.35;;;;;;;;;;5102276;28;20202;-67
2022/05/29 01:40:42;;;;;;;2.92;2.70;;;;;;;;;;5102404;28;20203;-67
2022/05/29 01:43:16;;;;;;;2.97;2.47;;;;;;;;;;5102563;28;20453;-67
2022/05/29 01:45:56;;;;;;;3.40;2.25;;;;;;;;;;5102684;28;20196;-67
2022/05/29 01:48:36;;;;;;;5.35;2.55;;;;;;;;;;5102474;28;20549;-67
2022/05/29 01:51:05;;;;;;;4.53;2.50;;;;;;;;;;5102373;28;20202;-67
2022/05/29 01:53:34;;;;;;;5.35;2.17;;;;;;;;;;5102488;28;20391;-67
2022/05/29 01:56:02;;;;;;;3.28;2.38;;;;;;;;;;5102350;28;20436;-68
2022/05/29 01:58:31;;;;;;;2.95;2.00;;;;;;;;;;5102285;28;20429;-67
2022/05/29 02:01:01;;;;;;;3.75;2.80;;;;;;;;;;5102241;28;20202;-67
2022/05/29 02:03:31;;;;;;;4.13;2.97;;;;;;;;;;5102127;28;20238;-67
2022/05/29 02:05:59;;;;;;;2.45;2.25;;;;;;;;;;5102225;28;20216;-67
2022/05/29 02:08:28;;;;;;;3.50;2.40;;;;;;;;;;5102830;28;20199;-67
2022/05/29 02:10:58;;;;;;;2.00;1.90;;;;;;;;;;5106240;28;20195;-67
2022/05/29 02:13:26;;;;;;;2.13;2.03;;;;;;;;;;5106371;28;20195;-67
2022/05/29 02:15:55;;;;;;;5.60;2.47;;;;;;;;;;5106642;28;20249;-67
2022/05/29 02:18:24;;;;;;;4.43;2.92;;;;;;;;;;5106025;28;20207;-67
2022/05/29 02:20:52;;;;;;;2.35;2.25;;;;;;;;;;5106321;28;20375;-67
2022/05/29 02:23:21;;;;;;;2.63;2.35;;;;;;;;;;5105892;28;20222;-67
2022/05/29 02:25:48;;;;;;;3.08;2.60;;;;;;;;;;5106012;28;20200;-67
2022/05/29 02:28:17;;;;;;;5.75;3.25;;;;;;;;;;5105800;28;20199;-67
2022/05/29 02:30:46;;;;;;;7.15;2.85;;;;;;;;;;5105896;28;20200;-67
2022/05/29 02:33:15;;;;;;;3.55;2.80;;;;;;;;;;5106078;28;20191;-67
2022/05/29 02:35:46;;;;;;;6.78;3.10;;;;;;;;;;5106124;28;20199;-67
2022/05/29 02:38:15;;;;;;;5.50;2.70;;;;;;;;;;5105699;28;20495;-67
2022/05/29 02:40:46;;;;;;;6.00;2.60;;;;;;;;;;5105843;28;20258;-67
2022/05/29 02:43:17;;;;;;;3.10;2.78;;;;;;;;;;5105543;28;20428;-67
2022/05/29 02:45:46;;;;;;;3.53;3.22;;;;;;;;;;5105833;28;20196;-67
2022/05/29 02:48:17;;;;;;;4.43;3.30;;;;;;;;;;5105517;28;20195;-67
2022/05/29 02:50:47;;;;;;;3.13;2.85;;;;;;;;;;5105711;28;20199;-67
2022/05/29 02:53:14;;;;;;;3.40;2.85;;;;;;;;;;5105695;28;20421;-67
2022/05/29 02:55:41;;;;;;;3.47;3.20;;;;;;;;;;5105399;28;20199;-67
2022/05/29 02:58:10;;;;;;;4.05;2.90;;;;;;;;;;5105422;28;20196;-67
2022/05/29 03:00:43;;;;;;;5.30;3.13;;;;;;;;;;5105527;28;20219;-67
2022/05/29 03:03:13;;;;;;;3.28;3.03;;;;;;;;;;5105372;28;20219;-67
2022/05/29 03:05:46;;;;;;;3.70;2.70;;;;;;;;;;5105231;28;20329;-67
2022/05/29 03:08:22;;;;;;;6.50;3.22;;;;;;;;;;5104953;28;20456;-67
2022/05/29 03:10:53;;;;;;;4.30;2.75;;;;;;;;;;5105466;28;20203;-67
2022/05/29 03:13:24;;;;;;;2.95;2.75;;;;;;;;;;5105357;28;20192;-67
2022/05/29 03:15:54;;;;;;;3.40;3.10;;;;;;;;;;5105109;28;20203;-67
2022/05/29 03:18:27;;;;;;;4.72;3.08;;;;;;;;;;5104696;28;20196;-68
2022/05/29 03:20:59;;;;;;;3.28;2.95;;;;;;;;;;5104800;28;20549;-68
2022/05/29 03:23:30;;;;;;;3.55;2.63;;;;;;;;;;5104989;28;20211;-68
2022/05/29 03:25:57;;;;;;;5.00;3.08;;;;;;;;;;5105093;28;20200;-68
2022/05/29 03:28:26;;;;;;;3.65;2.83;;;;;;;;;;5104887;28;20461;-68
2022/05/29 03:30:53;;;;;;;4.63;3.20;;;;;;;;;;5104944;28;20364;-68
2022/05/29 03:33:20;;;;;;;4.32;2.72;;;;;;;;;;5104590;28;20361;-68
2022/05/29 03:35:47;;;;;;;3.20;2.70;;;;;;;;;;5104915;28;20219;-68
2022/05/29 03:38:14;;;;;;;6.32;3.10;;;;;;;;;;5104553;28;20196;-68
2022/05/29 03:40:41;;;;;;;4.65;2.67;;;;;;;;;;5104721;28;20196;-68
2022/05/29 03:43:07;;;;;;;4.85;2.75;;;;;;;;;;5104553;28;20196;-68
2022/05/29 03:45:34;;;;;;;2.50;2.35;;;;;;;;;;5104329;28;20203;-68
2022/05/29 03:48:02;;;;;;;3.30;3.00;;;;;;;;;;5104574;28;20231;-68
2022/05/29 03:50:28;;;;;;;5.15;2.90;;;;;;;;;;5104553;28;20530;-68
2022/05/29 03:52:54;;;;;;;4.40;3.05;;;;;;;;;;5104731;28;20383;-68
2022/05/29 03:55:21;;;;;;;4.03;2.83;;;;;;;;;;5104350;28;20191;-68
2022/05/29 03:57:49;;;;;;;2.95;2.40;;;;;;;;;;5104078;28;20210;-68
2022/05/29 04:00:16;;;;;;;3.75;2.50;;;;;;;;;;5104184;28;20204;-68
2022/05/29 04:02:43;;;;;;;2.80;2.58;;;;;;;;;;5104177;28;20195;-68
2022/05/29 04:05:10;;;;;;;2.20;1.90;;;;;;;;;;5103952;28;20313;-68
2022/05/29 04:13:06;;;;;;;3.78;2.42;;;;;;;;;;5104001;28;20413;-68
2022/05/29 04:15:32;;;;;;;3.25;2.15;;;;;;;;;;5104042;28;20196;-67
2022/05/29 04:17:58;;;;;;;4.32;2.10;;;;;;;;;;5103835;28;20199;-67
2022/05/29 04:20:24;;;;;;;3.85;2.50;;;;;;;;;;5103876;28;20196;-67
2022/05/29 04:22:51;;;;;;;3.38;2.28;;;;;;;;;;5103867;28;20437;-67
2022/05/29 04:25:17;;;;;;;3.55;1.95;;;;;;;;;;5104005;28;20527;-67
2022/05/29 04:27:43;;;;;;;2.40;2.08;;;;;;;;;;5103661;28;20439;-67
2022/05/29 04:30:12;;;;;;;6.50;2.20;;;;;;;;;;5103800;28;20202;-67
2022/05/29 04:35:22;;;;;;;2.15;1.98;;;;;;;;;;5103604;28;20190;-67
2022/05/29 04:37:49;;;;;;;2.40;1.90;;;;;;;;;;5103334;28;20195;-67
2022/05/29 04:40:15;;;;;;;2.40;2.20;;;;;;;;;;5103649;28;20266;-67
2022/05/29 04:42:41;;;;;;;4.40;2.55;;;;;;;;;;5103649;28;20200;-67
2022/05/29 04:45:08;;;;;;;3.05;2.10;;;;;;;;;;5103214;28;20216;-67
2022/05/29 04:47:35;;;;;;;2.10;2.00;;;;;;;;;;5102998;28;20204;-67
2022/05/29 04:50:02;;;;;;;2.95;2.28;;;;;;;;;;5103278;28;20204;-67
2022/05/29 04:52:29;;;;;;;2.20;1.85;;;;;;;;;;5103057;28;20200;-67
2022/05/29 04:54:55;;;;;;;1.42;1.33;;;;;;;;;;5103155;28;20198;-67
2022/05/29 04:57:21;;;;;;;6.13;1.70;;;;;;;;;;5103032;28;20204;-67
2022/05/29 04:59:48;;;;;;;1.42;1.33;;;;;;;;;;5103257;28;20526;-67
2022/05/29 05:02:14;;;;;;;1.98;1.30;;;;;;;;;;5103123;28;20202;-67
2022/05/29 05:04:41;;;;;;;1.95;1.60;;;;;;;;;;5102631;28;20220;-67
2022/05/29 05:07:08;;;;;;;2.08;1.40;;;;;;;;;;5102668;28;20199;-67
2022/05/29 05:09:35;;;;;;;4.32;1.50;;;;;;;;;;5103217;28;20199;-68
2022/05/29 05:12:01;;;;;;;6.30;1.70;;;;;;;;;;5102995;28;20188;-68
2022/05/29 05:14:28;;;;;;;3.22;1.50;;;;;;;;;;5102801;28;20192;-68
2022/05/29 05:16:54;;;;;;;2.60;1.60;;;;;;;;;;5102656;28;20199;-67
2022/05/29 05:19:21;;;;;;;3.90;1.48;;;;;;;;;;5102676;28;20196;-67
2022/05/29 05:21:49;;;;;;;2.08;1.50;;;;;;;;;;5102666;28;20211;-68
2022/05/29 05:24:16;;;;;;;4.35;1.40;;;;;;;;;;5102788;28;20223;-67
2022/05/29 05:26:42;;;;;;;4.97;1.30;;;;;;;;;;5102509;28;20267;-67
2022/05/29 05:29:08;;;;;;;2.05;1.50;;;;;;;;;;5102761;28;20195;-67
2022/05/29 05:31:34;;;;;;;5.05;1.40;;;;;;;;;;5102661;28;20202;-67
2022/05/29 05:34:02;;;;;;;1.52;1.40;;;;;;;;;;5102481;28;20195;-67
2022/05/29 05:36:28;;;;;;;2.45;1.25;;;;;;;;;;5102573;28;20196;-67
2022/05/29 05:38:56;;;;;;;1.35;1.25;;;;;;;;;;5102635;28;20233;-67
2022/05/29 05:41:22;;;;;;;4.63;1.30;;;;;;;;;;5102563;28;20199;-67
2022/05/29 05:43:49;;;;;;;1.70;1.60;;;;;;;;;;5089393;28;20242;-67
2022/05/29 05:46:16;;;;;;;1.42;1.30;;;;;;;;;;5081958;28;20204;-67
2022/05/29 05:48:43;;;;;;;3.78;1.15;;;;;;;;;;5081951;28;20196;-67
2022/05/29 05:51:09;;;;;;;2.53;1.55;;;;;;;;;;5082071;28;20196;-67
2022/05/29 05:53:36;;;;;;;3.10;1.50;;;;;;;;;;5082404;28;20203;-67
2022/05/29 05:56:05;;;;;;;3.70;1.55;;;;;;;;;;5082101;28;20196;-67
2022/05/29 05:58:32;;;;;;;2.65;1.60;;;;;;;;;;5082110;28;20196;-67
2022/05/29 06:00:58;;;;;;;1.20;1.20;;;;;;;;;;5082103;28;20210;-67
2022/05/29 06:03:24;;;;;;;1.67;1.02;;;;;;;;;;5082284;28;20205;-67
2022/05/29 06:05:51;;;;;;;2.17;1.20;;;;;;;;;;5082079;28;20223;-67
2022/05/29 06:08:17;;;;;;;1.85;1.52;;;;;;;;;;5081618;28;20503;-67
2022/05/29 06:10:43;;;;;;;3.22;1.25;;;;;;;;;;5082059;28;20496;-67
2022/05/29 06:13:11;;;;;;;2.33;1.75;;;;;;;;;;5082005;28;20550;-67
2022/05/29 06:15:38;;;;;;;3.40;1.63;;;;;;;;;;5082285;28;20410;-67
2022/05/29 06:18:04;;;;;;;3.47;1.55;;;;;;;;;;5081825;28;20204;-67
2022/05/29 06:20:31;;;;;;;1.40;1.30;;;;;;;;;;5081943;28;20196;-67
2022/05/29 06:22:57;;;;;;;1.70;1.60;;;;;;;;;;5081866;28;20203;-67
2022/05/29 06:25:23;;;;;;;1.85;1.75;;;;;;;;;;5081750;28;20220;-67
2022/05/29 06:27:50;;;;;;;2.90;1.95;;;;;;;;;;5081557;28;20196;-67
2022/05/29 06:30:17;;;;;;;6.07;2.20;;;;;;;;;;5081748;28;20192;-67
2022/05/29 06:32:44;;;;;;;5.53;1.40;;;;;;;;;;5081699;28;20200;-67
2022/05/29 06:35:11;;;;;;;2.70;1.38;;;;;;;;;;5081726;28;20193;-67
2022/05/29 06:37:38;;;;;;;1.77;1.65;;;;;;;;;;5081669;28;20196;-67
2022/05/29 06:40:05;;;;;;;4.35;2.30;;;;;;;;;;5081710;28;20219;-67
2022/05/29 06:42:31;;;;;;;3.78;1.75;;;;;;;;;;5081675;28;20196;-67
2022/05/29 06:44:59;;;;;;;2.38;1.75;;;;;;;;;;5081528;28;20212;-67
2022/05/29 06:47:26;;;;;;;2.17;1.35;;;;;;;;;;5081072;28;20201;-67
2022/05/29 06:49:53;;;;;;;2.92;1.33;;;;;;;;;;5081676;28;20200;-67
2022/05/29 06:52:19;;;;;;;1.98;1.38;;;;;;;;;;5081688;28;20245;-67
2022/05/29 06:54:45;;;;;;;1.88;1.30;;;;;;;;;;5082426;28;20384;-67
2022/05/29 06:57:12;;;;;;;3.55;1.45;;;;;;;;;;5084946;28;20196;-67
2022/05/29 07:06:59;;;;;;;1.95;1.38;;;;;;;;;;5085017;28;20203;-67
2022/05/29 07:07:55;;;;;;;1.13;1.05;;;;;;;;;;5084577;28;20232;-67
2022/05/29 07:10:21;;;;;;;2.88;1.27;;;;;;;;;;5085359;28;20254;-67
2022/05/29 07:12:49;;;;;;;5.07;1.48;;;;;;;;;;5084956;28;20203;-67
2022/05/29 07:15:17;;;;;;;3.50;1.30;;;;;;;;;;5084852;28;20199;-68
2022/05/29 07:17:45;;;;;;;1.35;1.20;;;;;;;;;;5084497;28;20242;-68
2022/05/29 07:20:12;;;;;;;1.42;1.23;;;;;;;;;;5084663;28;20204;-68
2022/05/29 07:22:40;;;;;;;2.47;1.20;;;;;;;;;;5084861;28;20203;-67
2022/05/29 07:25:07;;;;;;;2.42;1.80;;;;;;;;;;5084546;28;20228;-67
2022/05/29 07:27:34;;;;;;;1.30;1.15;;;;;;;;;;5084260;28;20203;-67
2022/05/29 07:30:00;;;;;;;3.33;1.10;;;;;;;;;;5084617;28;20504;-67
2022/05/29 07:32:26;;;;;;;1.50;1.10;;;;;;;;;;5084562;28;20331;-67
2022/05/29 07:34:54;;;;;;;2.85;1.10;;;;;;;;;;5084268;28;20193;-67
2022/05/29 07:37:21;;;;;;;2.30;1.27;;;;;;;;;;5084427;28;20203;-67
2022/05/29 07:39:48;;;;;;;1.33;1.23;;;;;;;;;;5084522;28;20207;-67
2022/05/29 07:45:10;;;;;;;3.83;2.10;;;;;;;;;;5042247;28;20244;-67
2022/05/29 07:47:39;;;;;;;2.17;1.20;;;;;;;;;;5073810;28;20535;-67
2022/05/29 07:50:08;;;;;;;1.25;1.13;;;;;;;;;;5084276;28;20431;-67
2022/05/29 07:52:34;;;;;;;5.78;3.33;;;;;;;;;;5084279;28;20242;-67
2022/05/29 07:55:00;;;;;;;2.58;1.08;;;;;;;;;;5084107;28;20450;-67
2022/05/29 07:57:26;;;;;;;1.73;1.20;;;;;;;;;;5083876;28;20196;-68
2022/05/29 07:59:53;;;;;;;4.25;1.77;;;;;;;;;;5083979;28;20518;-68
2022/05/29 08:02:19;;;;;;;1.23;1.08;;;;;;;;;;5084076;28;20257;-68
2022/05/29 08:04:45;;;;;;;1.42;1.33;;;;;;;;;;5083650;28;20220;-68
2022/05/29 08:07:15;;;;;;;3.03;1.30;;;;;;;;;;5082641;28;20199;-68
2022/05/29 08:09:41;;;;;;;1.20;1.20;;;;;;;;;;5083843;28;20235;-68
2022/05/29 08:12:08;;;;;;;4.72;1.38;;;;;;;;;;5083559;28;20211;-68
2022/05/29 08:14:34;;;;;;;3.88;1.40;;;;;;;;;;5083556;28;20223;-68
2022/05/29 08:17:00;;;;;;;4.65;1.50;;;;;;;;;;5083654;28;20262;-68
2022/05/29 08:19:27;;;;;;;2.60;1.55;;;;;;;;;;5086514;28;20196;-68
2022/05/29 08:21:53;;;;;;;3.38;1.60;;;;;;;;;;5094060;28;20231;-68
2022/05/29 08:32:34;;;;;;;2.97;1.70;;;;;;;;;;5093274;28;20238;-68
2022/05/29 08:35:01;;;;;;;3.35;1.50;;;;;;;;;;5085042;28;20192;-68
2022/05/29 08:37:27;;;;;;;4.75;1.63;;;;;;;;;;5101227;28;20215;-68
2022/05/29 08:39:55;;;;;;;4.70;1.63;;;;;;;;;;5103536;28;20214;-68
2022/05/29 08:42:25;;;;;;;4.47;1.33;;;;;;;;;;5103699;28;20541;-68
2022/05/29 08:44:52;;;;;;;1.25;1.15;;;;;;;;;;5103333;28;20203;-68
2022/05/29 08:47:21;;;;;;;1.35;1.10;;;;;;;;;;5103183;28;20241;-68
2022/05/29 08:49:49;;;;;;;2.72;1.15;;;;;;;;;;5103302;28;20503;-68
2022/05/29 08:52:22;;;;;;;2.85;1.73;;;;;;;;;;5103513;28;20202;-68
2022/05/29 08:54:51;;;;;;;5.63;1.70;;;;;;;;;;5103379;28;20213;-68
2022/05/29 08:57:29;;;;;;;3.90;1.38;;;;;;;;;;5103125;28;20210;-68
2022/05/29 08:59:57;;;;;;;6.82;1.58;;;;;;;;;;5103057;28;20195;-68
2022/05/29 09:02:30;;;;;;;4.10;1.40;;;;;;;;;;5103064;28;20207;-68
2022/05/29 09:04:59;;;;;;;4.00;1.58;;;;;;;;;;5102827;28;20228;-68
2022/05/29 09:07:27;;;;;;;4.55;1.65;;;;;;;;;;5102966;28;20387;-68
2022/05/29 09:09:55;;;;;;;5.60;1.58;;;;;;;;;;5102925;28;20269;-68
2022/05/29 09:12:25;;;;;;;3.13;1.63;;;;;;;;;;5102968;28;20527;-68
2022/05/29 09:14:53;;;;;;;2.63;1.40;;;;;;;;;;5102781;28;20191;-68
2022/05/29 09:17:24;;;;;;;3.40;1.70;;;;;;;;;;5102612;28;20541;-68
2022/05/29 09:19:52;;;;;;;5.13;1.73;;;;;;;;;;5102797;28;20202;-69
2022/05/29 09:22:20;;;;;;;4.85;1.67;;;;;;;;;;5102932;28;20241;-68
2022/05/29 09:24:52;;;;;;;4.32;1.73;;;;;;;;;;5102663;28;20204;-68
2022/05/29 09:27:18;;;;;;;2.70;1.50;;;;;;;;;;5102432;28;20199;-68
2022/05/29 09:29:45;;;;;;;3.90;1.30;;;;;;;;;;5102886;28;20200;-68
2022/05/29 09:32:15;;;;;;;5.15;1.70;;;;;;;;;;5096142;28;20390;-68
2022/05/29 09:34:42;;;;;;;6.55;1.50;;;;;;;;;;5101435;28;20183;-69
2022/05/29 09:37:11;;;;;;;2.65;1.38;;;;;;;;;;5102360;28;20195;-69
2022/05/29 09:39:39;;;;;;;3.92;1.30;;;;;;;;;;5102360;28;20199;-66
2022/05/29 09:42:06;;;;;;;4.35;1.92;;;;;;;;;;5102417;28;20195;-68
2022/05/29 09:44:33;;;;;;;4.13;1.45;;;;;;;;;;5102573;28;20196;-67
2022/05/29 09:49:45;;;;;;;3.53;1.98;;;;;;;;;;5102149;28;20498;-67
2022/05/29 09:52:13;;;;;;;7.60;1.88;;;;;;;;;;5102255;28;20218;-67
2022/05/29 09:54:44;;;;;;;7.45;2.10;;;;;;;;;;5102515;28;20292;-67
2022/05/29 09:57:11;;;;;;;5.85;1.98;;;;;;;;;;5102063;28;20195;-67
2022/05/29 09:59:38;;;;;;;6.68;1.85;;;;;;;;;;5102226;28;20202;-69
2022/05/29 10:02:05;;;;;;;6.30;1.70;;;;;;;;;;5102390;28;20203;-68
2022/05/29 10:04:34;;;;;;;4.57;1.48;;;;;;;;;;5102089;28;20210;-68
2022/05/29 10:07:11;;;;;;;4.82;1.60;;;;;;;;;;5101838;28;20253;-68
2022/05/29 10:09:55;;;;;;;7.18;2.00;;;;;;;;;;5102415;28;20222;-68
2022/05/29 10:12:22;;;;;;;3.90;1.45;;;;;;;;;;5102228;28;20527;-67
2022/05/29 10:14:48;;;;;;;4.50;1.70;;;;;;;;;;5102213;28;20426;-67
2022/05/29 10:17:15;;;;;;;2.90;1.50;;;;;;;;;;5101782;28;20204;-68
2022/05/29 10:19:42;;;;;;;5.03;1.70;;;;;;;;;;5102093;28;20203;-68
2022/05/29 10:22:15;;;;;;;2.60;1.65;;;;;;;;;;5102304;28;20503;-68
2022/05/29 10:24:42;;;;;;;5.25;1.42;;;;;;;;;;5102156;28;20498;-67
2022/05/29 10:27:12;;;;;;;2.90;1.38;;;;;;;;;;5101638;28;20216;-67
2022/05/29 10:29:39;;;;;;;3.80;1.30;;;;;;;;;;5103252;28;20199;-68
2022/05/29 10:32:07;;;;;;;3.35;1.17;;;;;;;;;;5105868;28;20195;-68
2022/05/29 10:34:36;;;;;;;2.22;1.17;;;;;;;;;;5106093;28;20522;-68
2022/05/29 10:37:22;;;;;;;1.65;0.85;;;;;;;;;;5105855;28;20524;-68
2022/05/29 10:39:49;;;;;;;1.75;0.90;;;;;;;;;;5105597;28;20195;-68
2022/05/29 10:42:18;;;;;;;4.68;1.02;;;;;;;;;;5105709;28;20206;-68
2022/05/29 10:44:45;;;;;;;2.78;1.08;;;;;;;;;;5105759;28;20203;-68
2022/05/29 10:47:18;;;;;;;3.30;0.95;;;;;;;;;;5105493;28;20215;-68
2022/05/29 10:49:49;;;;;;;1.30;1.20;;;;;;;;;;5105894;28;20199;-68
2022/05/29 10:52:20;;;;;;;4.45;1.40;;;;;;;;;;5105742;28;20195;-68
2022/05/29 10:55:01;;;;;;;2.15;1.30;;;;;;;;;;5105496;28;20206;-69
2022/05/29 10:57:41;;;;;;;2.50;1.58;;;;;;;;;;5102450;28;20202;-68
2022/05/29 11:00:10;;;;;;;2.63;1.25;;;;;;;;;;5105623;28;20525;-69
2022/05/29 11:05:38;;;;;;;2.60;1.20;;;;;;;;;;5105244;28;20226;-68
2022/05/29 11:08:12;;;;;;;3.00;1.27;;;;;;;;;;5105298;28;20195;-68
2022/05/29 11:10:55;;;;;;;2.30;1.45;;;;;;;;;;5105366;28;20217;-68
2022/05/29 11:13:28;;;;;;;2.35;1.15;;;;;;;;;;5105269;28;20511;-68
2022/05/29 11:16:00;;;;;;;4.25;1.10;;;;;;;;;;5105006;28;20204;-68
2022/05/29 11:18:42;;;;;;;1.48;1.30;;;;;;;;;;5105366;28;20200;-68
2022/05/29 11:21:13;;;;;;;3.80;1.50;;;;;;;;;;5105193;28;20195;-68
2022/05/29 11:23:51;;;;;;;5.90;1.80;;;;;;;;;;5105064;28;20200;-68
2022/05/29 11:26:22;;;;;;;2.55;1.38;;;;;;;;;;5104577;28;20229;-68
2022/05/29 11:29:01;;;;;;;3.75;1.70;;;;;;;;;;5105147;28;20196;-68
2022/05/29 11:31:34;;;;;;;3.08;1.40;;;;;;;;;;5105096;28;20387;-68
2022/05/29 11:34:05;;;;;;;1.73;1.60;;;;;;;;;;5104932;28;20420;-68
2022/05/29 11:36:40;;;;;;;6.53;1.80;;;;;;;;;;5104429;28;20456;-68
2022/05/29 11:39:24;;;;;;;1.58;1.13;;;;;;;;;;5105082;28;20499;-69
2022/05/29 11:41:52;;;;;;;2.85;1.25;;;;;;;;;;5105152;28;20203;-68
2022/05/29 11:44:22;;;;;;;2.90;1.50;;;;;;;;;;5105736;28;20210;-68
2022/05/29 11:52:21;;;;;;;4.15;1.17;;;;;;;;;;5104316;28;20195;-68
2022/05/29 11:54:50;;;;;;;1.98;1.67;;;;;;;;;;5104466;28;20203;-68
2022/05/29 11:57:19;;;;;;;2.55;1.55;;;;;;;;;;5104026;28;20198;-68
2022/05/29 11:59:50;;;;;;;2.35;1.33;;;;;;;;;;5104592;28;20196;-68
2022/05/29 12:02:24;;;;;;;3.20;1.92;;;;;;;;;;5104463;28;20202;-68
2022/05/29 12:04:54;;;;;;;3.28;1.50;;;;;;;;;;5104179;28;20234;-68
2022/05/29 12:07:23;;;;;;;1.52;1.17;;;;;;;;;;5103965;28;20409;-68
2022/05/29 12:09:53;;;;;;;2.15;1.00;;;;;;;;;;5104109;28;20196;-68
2022/05/29 12:12:21;;;;;;;5.97;1.15;;;;;;;;;;5103984;28;20196;-68
2022/05/29 12:14:52;;;;;;;1.20;1.20;;;;;;;;;;5104205;28;20218;-68
2022/05/29 12:17:21;;;;;;;0.93;0.90;;;;;;;;;;5104106;28;20521;-68
2022/05/29 12:19:49;;;;;;;1.15;1.00;;;;;;;;;;5104044;28;20249;-68
2022/05/29 12:22:17;;;;;;;1.45;1.00;;;;;;;;;;5103844;28;20196;-68
2022/05/29 12:24:46;;;;;;;1.50;1.08;;;;;;;;;;5104126;28;20216;-68
2022/05/29 12:27:14;;;;;;;0.80;0.75;;;;;;;;;;5103910;28;20600;-68
2022/05/29 12:29:43;;;;;;;1.15;0.85;;;;;;;;;;5103772;28;20202;-68
2022/05/29 12:32:15;;;;;;;1.17;0.82;;;;;;;;;;5103737;28;20196;-68
2022/05/29 12:34:43;;;;;;;0.75;0.75;;;;;;;;;;5103756;28;20199;-68
2022/05/29 12:37:27;;;;;;;2.28;1.08;;;;;;;;;;5103387;28;20210;-69
2022/05/29 12:40:05;;;;;;;1.92;0.90;;;;;;;;;;5103468;28;20210;-69
2022/05/29 12:42:41;;;;;;;1.05;0.80;;;;;;;;;;5103574;28;20458;-69
2022/05/29 12:45:23;;;;;;;1.35;0.60;;;;;;;;;;5103449;28;20195;-68
2022/05/29 12:48:04;;;;;;;0.75;0.70;;;;;;;;;;5100793;28;20296;-69
2022/05/29 12:50:57;;;;;;;1.65;0.60;;;;;;;;;;5103488;28;20233;-69
2022/05/29 12:53:37;;;;;;;0.55;0.55;;;;;;;;;;5066539;28;20204;-68
2022/05/29 12:56:21;;;;;;;1.35;0.57;;;;;;;;;;5103069;28;20237;-68
2022/05/29 12:59:07;;;;;;;1.05;0.50;;;;;;;;;;5103363;28;20196;-69
2022/05/29 13:01:41;;;;;;;0.65;0.65;;;;;;;;;;5103199;28;20199;-69
2022/05/29 13:04:31;;;;;;;1.80;0.50;;;;;;;;;;5102821;28;20245;-69
2022/05/29 13:07:09;;;;;;;1.75;0.50;;;;;;;;;;5103090;28;20676;-69
2022/05/29 13:09:42;;;;;;;0.85;0.50;;;;;;;;;;5103181;28;20195;-69
2022/05/29 13:12:13;;;;;;;0.60;0.60;;;;;;;;;;5103084;28;20200;-69
2022/05/29 13:14:46;;;;;;;3.47;0.50;;;;;;;;;;5102934;28;20196;-69
2022/05/29 13:17:13;;;;;;;1.30;0.60;;;;;;;;;;5102904;28;20192;-69
2022/05/29 13:19:54;;;;;;;0.80;0.70;;;;;;;;;;5103055;28;20402;-69
2022/05/29 13:22:22;;;;;;;1.92;0.80;;;;;;;;;;5100240;28;20195;-69
2022/05/29 13:25:00;;;;;;;0.82;0.82;;;;;;;;;;5102652;28;20195;-69
2022/05/29 13:27:33;;;;;;;3.40;0.75;;;;;;;;;;5102727;28;20218;-69
2022/05/29 13:30:00;;;;;;;2.13;0.90;;;;;;;;;;5102949;28;20257;-69
2022/05/29 13:32:28;;;;;;;4.63;0.95;;;;;;;;;;5102757;28;20204;-69
2022/05/29 13:35:15;;;;;;;3.40;0.98;;;;;;;;;;5102599;28;20504;-69
2022/05/29 13:37:45;;;;;;;2.33;0.95;;;;;;;;;;5102336;28;20267;-69
2022/05/29 13:40:31;;;;;;;1.02;0.90;;;;;;;;;;5102552;28;20203;-69
2022/05/29 13:43:22;;;;;;;1.38;0.80;;;;;;;;;;5102370;28;20209;-69
2022/05/29 13:45:58;;;;;;;0.82;0.80;;;;;;;;;;5102326;28;20196;-69
2022/05/29 13:48:25;;;;;;;1.20;1.10;;;;;;;;;;5102640;28;20191;-69
2022/05/29 13:50:55;;;;;;;1.25;0.60;;;;;;;;;;5102374;28;20195;-69
2022/05/29 13:53:25;;;;;;;0.90;0.70;;;;;;;;;;5102438;28;20199;-69
2022/05/29 13:55:55;;;;;;;1.70;0.70;;;;;;;;;;5102378;28;20217;-69
2022/05/29 14:04:03;;;;;;;1.88;0.88;;;;;;;;;;5102474;28;20522;-69
2022/05/29 14:06:30;;;;;;;1.98;0.80;;;;;;;;;;5105929;28;20223;-69
2022/05/29 14:08:59;;;;;;;0.50;0.50;;;;;;;;;;5106650;28;20495;-69
2022/05/29 14:11:40;;;;;;;1.00;0.60;;;;;;;;;;5106648;28;20202;-69
2022/05/29 14:14:21;;;;;;;0.70;0.65;;;;;;;;;;5106328;28;20376;-69
2022/05/29 14:16:48;;;;;;;1.85;0.80;;;;;;;;;;5105922;28;20463;-69
2022/05/29 14:19:25;;;;;;;1.50;0.70;;;;;;;;;;5106346;28;20199;-69
2022/05/29 14:22:04;;;;;;;0.70;0.70;;;;;;;;;;5106556;28;20507;-69
2022/05/29 14:24:38;;;;;;;1.85;0.70;;;;;;;;;;5106380;28;20503;-69
2022/05/29 14:27:13;;;;;;;2.10;0.70;;;;;;;;;;5105926;28;20537;-69
2022/05/29 14:30:04;;;;;;;2.80;0.60;;;;;;;;;;5106296;28;20225;-69
2022/05/29 14:32:43;;;;;;;1.95;0.65;;;;;;;;;;5091051;28;20234;-69
2022/05/29 14:35:16;;;;;;;0.95;0.68;;;;;;;;;;5106164;28;20277;-69
2022/05/29 14:38:01;;;;;;;2.47;0.90;;;;;;;;;;5105688;28;20429;-69
2022/05/29 14:40:34;;;;;;;0.80;0.77;;;;;;;;;;5106167;28;20195;-69
2022/05/29 14:43:04;;;;;;;1.45;0.68;;;;;;;;;;5105833;28;20241;-69
2022/05/29 14:45:30;;;;;;;0.60;0.60;;;;;;;;;;5105821;28;20503;-69
2022/05/29 14:48:00;;;;;;;1.00;0.80;;;;;;;;;;5105426;28;20554;-69
2022/05/29 14:50:29;;;;;;;1.85;0.60;;;;;;;;;;5105730;28;20195;-69
2022/05/29 14:53:00;;;;;;;0.70;0.70;;;;;;;;;;5105589;28;20196;-69
2022/05/29 14:55:29;;;;;;;2.42;0.70;;;;;;;;;;5105530;28;20196;-69
2022/05/29 14:57:57;;;;;;;1.65;0.85;;;;;;;;;;5105342;28;20259;-69
2022/05/29 15:00:27;;;;;;;1.30;0.63;;;;;;;;;;5105642;28;20426;-69
2022/05/29 15:02:54;;;;;;;1.00;0.68;;;;;;;;;;5105213;28;20265;-68
2022/05/29 15:05:21;;;;;;;1.05;0.55;;;;;;;;;;5105497;28;20222;-68
2022/05/29 15:10:36;;;;;;;2.38;0.90;;;;;;;;;;5105444;28;20206;-68
2022/05/29 15:13:09;;;;;;;1.48;1.10;;;;;;;;;;5105312;28;20195;-68
2022/05/29 15:15:37;;;;;;;2.88;1.38;;;;;;;;;;5104847;28;20203;-69
2022/05/29 15:18:11;;;;;;;2.30;1.30;;;;;;;;;;5105091;28;20239;-68
2022/05/29 15:26:21;;;;;;;0.98;0.80;;;;;;;;;;5104857;28;20289;-69
2022/05/29 15:28:49;;;;;;;3.90;0.93;;;;;;;;;;5105029;28;20218;-68
2022/05/29 15:31:21;;;;;;;1.30;0.82;;;;;;;;;;5104729;28;20200;-69
2022/05/29 15:33:54;;;;;;;1.40;0.85;;;;;;;;;;5104993;28;20200;-69
2022/05/29 15:36:25;;;;;;;2.47;0.93;;;;;;;;;;5104810;28;20200;-68
2022/05/29 15:38:57;;;;;;;1.15;0.88;;;;;;;;;;5104922;28;20203;-68
2022/05/29 15:41:33;;;;;;;2.08;0.88;;;;;;;;;;5104813;28;20196;-69
2022/05/29 15:44:08;;;;;;;1.88;0.98;;;;;;;;;;5104669;28;20211;-69
2022/05/29 15:46:44;;;;;;;1.42;0.57;;;;;;;;;;5104269;28;20240;-69
2022/05/29 15:49:19;;;;;;;2.60;0.95;;;;;;;;;;5104614;28;20525;-69